createdAt,value
2018-05-07T00:00:36.782Z,53.00
2018-05-07T00:03:03.105Z,53.70
2018-05-07T00:05:29.598Z,53.10
2018-05-07T00:07:55.938Z,53.10
2018-05-07T00:10:22.300Z,53.10
2018-05-07T00:12:48.590Z,53.10
2018-05-07T00:15:15.608Z,53.30
2018-05-07T00:17:42.808Z,53.30
2018-05-07T00:20:09.126Z,53.20
2018-05-07T00:22:36.439Z,53.30
2018-05-07T00:25:03.556Z,53.30
2018-05-07T00:27:29.872Z,53.30
2018-05-07T00:29:57.021Z,53.30
2018-05-07T00:32:23.339Z,53.30
2018-05-07T00:34:50.460Z,53.40
2018-05-07T00:37:17.522Z,54.10
2018-05-07T00:39:43.903Z,53.50
2018-05-07T00:42:10.322Z,53.40
2018-05-07T00:44:36.638Z,53.50
2018-05-07T00:47:03.683Z,53.60
2018-05-07T00:49:30.948Z,53.50
2018-05-07T00:51:57.994Z,53.70
2018-05-07T00:54:25.744Z,53.60
2018-05-07T00:56:52.932Z,53.50
2018-05-07T00:59:19.277Z,53.60
2018-05-07T01:01:45.602Z,53.60
2018-05-07T01:04:11.874Z,53.70
2018-05-07T01:06:38.140Z,53.70
2018-05-07T01:09:05.132Z,53.70
2018-05-07T01:11:31.381Z,53.70
2018-05-07T01:13:57.696Z,53.80
2018-05-07T01:16:23.972Z,53.80
2018-05-07T01:18:56.504Z,53.90
2018-05-07T01:21:22.826Z,53.80
2018-05-07T01:23:50.203Z,53.90
2018-05-07T01:26:16.648Z,53.90
2018-05-07T01:28:43.744Z,54.70
2018-05-07T01:31:10.151Z,54.00
2018-05-07T01:33:37.295Z,54.10
2018-05-07T01:36:04.371Z,54.70
2018-05-07T01:38:31.404Z,54.10
2018-05-07T01:40:58.469Z,54.10
2018-05-07T01:43:24.861Z,54.10
2018-05-07T01:45:51.183Z,54.10
2018-05-07T01:48:19.021Z,54.10
2018-05-07T01:50:46.583Z,54.20
2018-05-07T01:53:12.943Z,54.10
2018-05-07T01:55:39.610Z,54.20
2018-05-07T01:58:06.807Z,54.30
2018-05-07T02:00:33.153Z,54.30
2018-05-07T02:02:59.500Z,54.30
2018-05-07T02:05:25.861Z,54.30
2018-05-07T02:07:52.211Z,54.30
2018-05-07T02:10:18.499Z,54.30
2018-05-07T02:12:44.787Z,55.00
2018-05-07T02:15:11.067Z,54.40
2018-05-07T02:17:37.369Z,54.40
2018-05-07T02:20:03.750Z,54.40
2018-05-07T02:22:30.085Z,54.50
2018-05-07T02:24:56.471Z,54.50
2018-05-07T02:27:22.784Z,54.50
2018-05-07T02:29:49.882Z,54.60
2018-05-07T02:32:20.311Z,54.60
2018-05-07T02:34:46.636Z,54.60
2018-05-07T02:37:12.965Z,54.60
2018-05-07T02:39:39.305Z,54.60
2018-05-07T02:42:05.635Z,54.60
2018-05-07T02:44:32.006Z,54.70
2018-05-07T02:46:58.288Z,54.70
2018-05-07T02:49:24.618Z,54.70
2018-05-07T02:51:51.073Z,54.70
2018-05-07T02:54:17.541Z,54.80
2018-05-07T02:56:43.888Z,54.80
2018-05-07T02:59:10.930Z,54.80
2018-05-07T03:01:37.215Z,54.80
2018-05-07T03:04:03.537Z,54.80
2018-05-07T03:06:29.857Z,54.80
2018-05-07T03:08:56.233Z,54.90
2018-05-07T03:11:22.566Z,54.80
2018-05-07T03:13:48.926Z,54.90
2018-05-07T03:16:16.025Z,54.90
2018-05-07T03:18:42.413Z,54.90
2018-05-07T03:21:08.867Z,55.00
2018-05-07T03:23:35.168Z,55.00
2018-05-07T03:26:02.331Z,55.10
2018-05-07T03:28:28.711Z,55.00
2018-05-07T03:30:54.987Z,55.10
2018-05-07T03:33:21.293Z,55.10
2018-05-07T03:35:47.612Z,55.10
2018-05-07T03:38:14.018Z,55.00
2018-05-07T03:40:40.381Z,55.10
2018-05-07T03:43:06.645Z,55.10
2018-05-07T03:45:32.994Z,55.10
2018-05-07T03:47:59.344Z,55.10
2018-05-07T03:50:25.707Z,55.20
2018-05-07T03:52:52.093Z,55.20
2018-05-07T03:55:18.479Z,55.20
2018-05-07T03:57:44.827Z,55.20
2018-05-07T04:00:11.253Z,55.30
2018-05-07T04:02:37.665Z,55.30
2018-05-07T04:05:04.008Z,55.20
2018-05-07T04:07:30.416Z,55.30
2018-05-07T04:09:56.707Z,55.30
2018-05-07T04:12:23.052Z,55.40
2018-05-07T04:14:49.454Z,55.40
2018-05-07T04:17:15.772Z,55.40
2018-05-07T04:19:42.333Z,55.40
2018-05-07T04:22:08.762Z,55.40
2018-05-07T04:24:35.844Z,55.50
2018-05-07T04:27:02.920Z,55.50
2018-05-07T04:29:29.258Z,55.40
2018-05-07T04:31:55.756Z,55.50
2018-05-07T04:34:22.803Z,55.60
2018-05-07T04:36:49.123Z,55.40
2018-05-07T04:39:15.500Z,55.50
2018-05-07T04:41:42.605Z,55.60
2018-05-07T04:44:09.119Z,55.50
2018-05-07T04:46:35.444Z,55.60
2018-05-07T04:49:01.728Z,55.60
2018-05-07T04:51:27.993Z,55.60
2018-05-07T04:53:55.042Z,55.60
2018-05-07T04:56:21.412Z,55.60
2018-05-07T04:58:47.843Z,55.60
2018-05-07T05:01:14.222Z,55.70
2018-05-07T05:03:41.335Z,55.80
2018-05-07T05:06:07.699Z,55.70
2018-05-07T05:08:34.789Z,55.80
2018-05-07T05:11:01.122Z,55.70
2018-05-07T05:13:27.484Z,55.80
2018-05-07T05:15:53.773Z,55.80
2018-05-07T05:18:20.087Z,55.80
2018-05-07T05:20:46.462Z,55.80
2018-05-07T05:23:12.767Z,55.90
2018-05-07T05:25:39.155Z,55.90
2018-05-07T05:28:05.500Z,55.90
2018-05-07T05:30:31.881Z,55.90
2018-05-07T05:32:58.307Z,55.80
2018-05-07T05:35:24.657Z,55.90
2018-05-07T05:37:50.965Z,55.80
2018-05-07T05:40:17.396Z,55.90
2018-05-07T05:42:43.751Z,55.90
2018-05-07T05:45:10.200Z,56.50
2018-05-07T05:47:36.495Z,55.90
2018-05-07T05:50:02.885Z,55.90
2018-05-07T05:52:29.198Z,55.90
2018-05-07T05:54:55.588Z,55.90
2018-05-07T05:57:22.016Z,56.60
2018-05-07T05:59:48.652Z,56.00
2018-05-07T06:02:15.045Z,56.10
2018-05-07T06:04:41.379Z,56.10
2018-05-07T06:07:07.717Z,56.10
2018-05-07T06:09:34.119Z,56.10
2018-05-07T06:12:00.606Z,56.20
2018-05-07T06:14:27.038Z,56.20
2018-05-07T06:16:53.778Z,56.10
2018-05-07T06:19:20.987Z,56.20
2018-05-07T06:21:47.598Z,56.10
2018-05-07T06:24:16.377Z,56.20
2018-05-07T06:26:43.170Z,56.10
2018-05-07T06:29:09.511Z,56.10
2018-05-07T06:31:35.897Z,56.10
2018-05-07T06:34:02.402Z,56.20
2018-05-07T06:36:28.744Z,56.20
2018-05-07T06:38:55.807Z,56.20
2018-05-07T06:41:22.211Z,56.20
2018-05-07T06:43:49.153Z,56.20
2018-05-07T06:46:15.502Z,56.20
2018-05-07T06:48:42.632Z,56.20
2018-05-07T06:51:09.040Z,56.10
2018-05-07T06:53:35.336Z,56.10
2018-05-07T06:56:02.573Z,56.20
2018-05-07T06:58:28.927Z,56.10
2018-05-07T07:00:55.377Z,56.10
2018-05-07T07:03:21.985Z,56.00
2018-05-07T07:05:49.154Z,56.10
2018-05-07T07:08:15.714Z,56.00
2018-05-07T07:10:42.028Z,56.10
2018-05-07T07:13:08.466Z,56.10
2018-05-07T07:15:35.549Z,56.20
2018-05-07T07:18:01.877Z,56.20
2018-05-07T07:20:28.212Z,56.10
2018-05-07T07:22:54.563Z,56.30
2018-05-07T07:25:21.573Z,56.30
2018-05-07T07:27:47.921Z,56.30
2018-05-07T07:30:15.999Z,56.40
2018-05-07T07:32:42.408Z,56.40
2018-05-07T07:35:08.819Z,56.40
2018-05-07T07:37:35.906Z,56.50
2018-05-07T07:40:02.322Z,56.50
2018-05-07T07:42:28.625Z,56.50
2018-05-07T07:44:54.925Z,56.60
2018-05-07T07:47:21.406Z,56.60
2018-05-07T07:49:47.701Z,56.60
2018-05-07T07:52:14.797Z,56.70
2018-05-07T07:54:42.069Z,56.70
2018-05-07T07:57:08.420Z,56.70
2018-05-07T07:59:34.802Z,56.80
2018-05-07T08:02:01.861Z,56.50
2018-05-07T08:04:28.232Z,56.80
2018-05-07T08:06:54.547Z,56.90
2018-05-07T08:09:20.875Z,56.90
2018-05-07T08:11:47.215Z,56.90
2018-05-07T08:14:13.625Z,56.90
2018-05-07T08:16:39.961Z,57.00
2018-05-07T08:19:07.739Z,57.10
2018-05-07T08:21:34.147Z,57.10
2018-05-07T08:24:01.211Z,57.20
2018-05-07T08:26:28.543Z,57.10
2018-05-07T08:28:56.014Z,57.10
2018-05-07T08:31:35.158Z,57.10
2018-05-07T08:34:12.266Z,57.10
2018-05-07T08:36:38.753Z,57.10
2018-05-07T08:39:05.075Z,57.10
2018-05-07T08:41:31.396Z,57.10
2018-05-07T08:43:57.729Z,57.20
2018-05-07T08:46:24.092Z,57.20
2018-05-07T08:48:51.136Z,57.20
2018-05-07T08:51:17.476Z,57.20
2018-05-07T08:53:43.774Z,57.20
2018-05-07T08:56:10.350Z,57.30
2018-05-07T08:58:36.763Z,57.30
2018-05-07T09:01:03.089Z,57.40
2018-05-07T09:03:29.425Z,57.40
2018-05-07T09:05:56.482Z,57.50
2018-05-07T09:08:22.744Z,57.50
2018-05-07T09:10:49.081Z,57.50
2018-05-07T09:13:16.174Z,57.50
2018-05-07T09:15:42.494Z,57.50
2018-05-07T09:18:08.865Z,57.60
2018-05-07T09:20:35.219Z,57.70
2018-05-07T09:23:01.556Z,57.70
2018-05-07T09:25:28.691Z,57.80
2018-05-07T09:27:55.055Z,57.70
2018-05-07T09:30:21.448Z,57.80
2018-05-07T09:32:47.731Z,57.90
2018-05-07T09:35:14.024Z,57.90
2018-05-07T09:37:41.283Z,57.90
2018-05-07T09:40:08.334Z,57.90
2018-05-07T09:42:34.645Z,57.90
2018-05-07T09:45:00.995Z,58.00
2018-05-07T09:47:27.301Z,58.00
2018-05-07T09:49:53.614Z,57.90
2018-05-07T09:52:19.941Z,57.90
2018-05-07T09:54:46.246Z,57.90
2018-05-07T09:57:12.530Z,57.90
2018-05-07T09:59:38.828Z,57.80
2018-05-07T10:02:05.186Z,57.80
2018-05-07T10:04:31.551Z,57.80
2018-05-07T10:06:58.639Z,57.70
2018-05-07T10:09:24.940Z,57.60
2018-05-07T10:11:51.227Z,57.60
2018-05-07T10:14:17.614Z,57.60
2018-05-07T10:16:43.913Z,57.40
2018-05-07T10:19:11.423Z,57.40
2018-05-07T10:21:38.438Z,57.30
2018-05-07T10:24:05.544Z,57.30
2018-05-07T10:26:32.546Z,57.20
2018-05-07T10:28:58.916Z,57.20
2018-05-07T10:31:25.496Z,57.10
2018-05-07T10:36:44.123Z,56.90
2018-05-07T10:39:11.186Z,56.90
2018-05-07T10:41:37.476Z,56.80
2018-05-07T10:44:04.674Z,56.80
2018-05-07T10:46:31.038Z,56.80
2018-05-07T10:48:57.415Z,56.70
2018-05-07T10:51:24.432Z,56.80
2018-05-07T10:53:52.359Z,56.70
2018-05-07T10:56:18.745Z,56.70
2018-05-07T10:58:45.921Z,56.60
2018-05-07T11:01:12.260Z,56.60
2018-05-07T11:03:38.695Z,56.60
2018-05-07T11:06:04.986Z,56.50
2018-05-07T11:08:31.313Z,56.40
2018-05-07T11:10:58.344Z,56.40
2018-05-07T11:13:24.748Z,56.40
2018-05-07T11:15:51.262Z,56.30
2018-05-07T11:18:17.602Z,56.30
2018-05-07T11:20:44.838Z,56.20
2018-05-07T11:23:11.944Z,56.20
2018-05-07T11:25:38.296Z,56.20
2018-05-07T11:28:05.410Z,56.40
2018-05-07T11:30:32.473Z,56.00
2018-05-07T11:32:58.821Z,56.00
2018-05-07T11:35:25.122Z,55.90
2018-05-07T11:37:51.499Z,55.90
2018-05-07T11:40:17.817Z,55.90
2018-05-07T11:42:44.153Z,55.80
2018-05-07T11:45:11.021Z,55.80
2018-05-07T11:47:38.142Z,55.60
2018-05-07T11:50:04.435Z,55.60
2018-05-07T11:52:30.865Z,55.50
2018-05-07T11:54:57.304Z,55.50
2018-05-07T11:57:23.696Z,55.40
2018-05-07T11:59:50.527Z,55.40
2018-05-07T12:02:17.235Z,55.40
2018-05-07T12:04:43.758Z,55.30
2018-05-07T12:07:10.066Z,55.30
2018-05-07T12:09:36.502Z,55.30
2018-05-07T12:12:03.534Z,55.30
2018-05-07T12:14:31.024Z,55.20
2018-05-07T12:16:57.363Z,55.20
2018-05-07T12:19:23.630Z,55.80
2018-05-07T12:21:50.157Z,55.40
2018-05-07T12:24:16.738Z,55.00
2018-05-07T12:26:43.072Z,55.00
2018-05-07T12:29:09.441Z,54.90
2018-05-07T12:31:36.556Z,54.80
2018-05-07T12:34:02.847Z,54.80
2018-05-07T12:36:29.262Z,54.80
2018-05-07T12:38:55.536Z,54.70
2018-05-07T12:41:21.981Z,54.70
2018-05-07T12:43:48.398Z,54.60
2018-05-07T12:46:14.749Z,54.50
2018-05-07T12:48:42.078Z,54.60
2018-05-07T12:51:08.674Z,54.60
2018-05-07T12:53:35.026Z,54.50
2018-05-07T12:56:01.340Z,54.50
2018-05-07T12:58:28.504Z,54.50
2018-05-07T13:00:54.813Z,54.50
2018-05-07T13:03:21.225Z,54.40
2018-05-07T13:05:47.594Z,54.50
2018-05-07T13:08:13.970Z,54.40
2018-05-07T13:10:40.296Z,54.40
2018-05-07T13:13:06.640Z,54.40
2018-05-07T13:15:33.005Z,54.20
2018-05-07T13:18:00.095Z,54.30
2018-05-07T13:20:26.577Z,54.20
2018-05-07T13:22:52.961Z,54.10
2018-05-07T13:25:19.475Z,54.10
2018-05-07T13:27:45.845Z,54.10
2018-05-07T13:30:12.417Z,54.10
2018-05-07T13:32:38.747Z,54.10
2018-05-07T13:35:05.743Z,54.10
2018-05-07T13:37:32.023Z,54.00
2018-05-07T13:39:58.358Z,53.90
2018-05-07T13:42:25.446Z,54.00
2018-05-07T13:44:52.456Z,54.00
2018-05-07T13:47:18.785Z,53.80
2018-05-07T13:49:45.179Z,53.80
2018-05-07T13:52:11.611Z,53.80
2018-05-07T13:54:37.955Z,53.80
2018-05-07T13:57:04.274Z,53.70
2018-05-07T13:59:30.584Z,53.80
2018-05-07T14:01:57.082Z,53.80
2018-05-07T14:04:23.374Z,53.80
2018-05-07T14:06:49.707Z,53.70
2018-05-07T14:09:16.748Z,53.70
2018-05-07T14:11:43.772Z,53.70
2018-05-07T14:14:10.097Z,53.70
2018-05-07T14:16:36.471Z,53.60
2018-05-07T14:19:03.517Z,54.20
2018-05-07T14:21:30.591Z,53.50
2018-05-07T14:23:57.010Z,53.40
2018-05-07T14:26:23.446Z,53.40
2018-05-07T14:28:49.850Z,53.40
2018-05-07T14:31:16.204Z,53.40
2018-05-07T14:33:43.366Z,53.30
2018-05-07T14:36:09.680Z,53.30
2018-05-07T14:38:36.762Z,53.40
2018-05-07T14:41:03.627Z,53.30
2018-05-07T14:43:31.492Z,53.30
2018-05-07T14:45:57.911Z,53.20
2018-05-07T14:48:25.043Z,53.20
2018-05-07T14:50:51.381Z,53.20
2018-05-07T14:53:17.747Z,53.30
2018-05-07T14:55:44.143Z,53.20
2018-05-07T14:58:11.403Z,53.20
2018-05-07T15:00:37.743Z,53.10
2018-05-07T15:03:04.028Z,53.10
2018-05-07T15:05:31.123Z,53.10
2018-05-07T15:07:57.632Z,53.10
2018-05-07T15:10:24.039Z,53.10
2018-05-07T15:12:52.519Z,53.10
2018-05-07T15:15:18.979Z,53.10
2018-05-07T15:17:46.061Z,53.70
2018-05-07T15:20:12.371Z,53.00
2018-05-07T15:22:38.714Z,53.00
2018-05-07T15:25:05.089Z,53.00
2018-05-07T15:27:32.002Z,52.90
2018-05-07T15:29:58.346Z,52.90
2018-05-07T15:32:24.696Z,52.90
2018-05-07T15:34:51.088Z,52.90
2018-05-07T15:37:18.084Z,52.80
2018-05-07T15:39:44.432Z,52.80
2018-05-07T15:42:10.836Z,52.80
2018-05-07T15:44:37.180Z,52.80
2018-05-07T15:47:03.788Z,52.80
2018-05-07T15:49:30.144Z,52.90
2018-05-07T15:51:56.471Z,52.70
2018-05-07T15:54:22.860Z,52.70
2018-05-07T15:56:49.174Z,52.70
2018-05-07T15:59:16.123Z,52.40
2018-05-07T16:01:42.507Z,52.70
2018-05-07T16:04:08.779Z,52.70
2018-05-07T16:06:36.446Z,52.60
2018-05-07T16:09:02.744Z,52.60
2018-05-07T16:11:29.757Z,52.70
2018-05-07T16:13:56.756Z,52.70
2018-05-07T16:16:23.024Z,52.60
2018-05-07T16:18:49.357Z,52.60
2018-05-07T16:21:16.383Z,52.80
2018-05-07T16:23:42.679Z,52.70
2018-05-07T16:26:08.968Z,52.80
2018-05-07T16:31:32.582Z,52.80
2018-05-07T16:33:58.892Z,52.80
2018-05-07T16:36:25.197Z,52.80
2018-05-07T16:38:52.246Z,52.80
2018-05-07T16:41:18.563Z,52.80
2018-05-07T16:43:44.880Z,52.80
2018-05-07T16:46:11.151Z,52.80
2018-05-07T16:48:37.499Z,52.80
2018-05-07T16:51:04.458Z,52.90
2018-05-07T16:53:30.726Z,52.70
2018-05-07T16:55:57.063Z,52.80
2018-05-07T16:58:23.329Z,52.70
2018-05-07T17:00:49.567Z,52.70
2018-05-07T17:03:15.826Z,52.60
2018-05-07T17:05:42.083Z,52.70
2018-05-07T17:08:08.409Z,52.70
2018-05-07T17:10:35.412Z,52.70
2018-05-07T17:13:01.701Z,52.60
2018-05-07T17:15:27.972Z,52.60
2018-05-07T17:17:54.261Z,52.60
2018-05-07T17:20:20.586Z,52.60
2018-05-07T17:22:46.923Z,52.60
2018-05-07T17:25:13.216Z,52.50
2018-05-07T17:27:39.543Z,52.50
2018-05-07T17:30:05.791Z,52.60
2018-05-07T17:32:32.031Z,52.60
2018-05-07T17:34:59.053Z,52.60
2018-05-07T17:37:25.369Z,52.50
2018-05-07T17:39:51.675Z,52.60
2018-05-07T17:42:18.684Z,52.70
2018-05-07T17:44:45.706Z,52.60
2018-05-07T17:47:11.982Z,52.60
2018-05-07T17:49:38.248Z,52.60
2018-05-07T17:52:04.514Z,52.60
2018-05-07T17:54:31.578Z,53.30
2018-05-07T17:56:57.852Z,52.70
2018-05-07T17:59:24.110Z,52.70
2018-05-07T18:01:50.389Z,52.70
2018-05-07T18:04:17.460Z,52.80
2018-05-07T18:06:43.734Z,52.70
2018-05-07T18:09:10.249Z,52.80
2018-05-07T18:11:36.646Z,52.70
2018-05-07T18:14:03.166Z,52.70
2018-05-07T18:16:29.718Z,52.80
2018-05-07T18:18:56.135Z,52.80
2018-05-07T18:21:23.168Z,52.90
2018-05-07T18:23:49.511Z,52.80
2018-05-07T18:26:16.609Z,52.80
2018-05-07T18:28:42.989Z,52.90
2018-05-07T18:31:09.401Z,52.90
2018-05-07T18:33:35.785Z,52.80
2018-05-07T18:36:02.218Z,52.80
2018-05-07T18:38:28.574Z,52.80
2018-05-07T18:40:54.933Z,52.80
2018-05-07T18:43:21.266Z,52.90
2018-05-07T18:45:48.395Z,52.90
2018-05-07T18:48:14.759Z,52.80
2018-05-07T18:50:41.063Z,52.80
2018-05-07T18:53:07.415Z,52.90
2018-05-07T18:55:34.500Z,52.90
2018-05-07T18:58:01.598Z,52.80
2018-05-07T19:00:28.020Z,52.80
2018-05-07T19:02:54.343Z,52.80
2018-05-07T19:05:21.487Z,52.80
2018-05-07T19:07:47.880Z,52.80
2018-05-07T19:10:15.032Z,52.80
2018-05-07T19:12:41.381Z,52.80
2018-05-07T19:15:07.777Z,52.80
2018-05-07T19:17:34.937Z,52.80
2018-05-07T19:20:02.576Z,52.70
2018-05-07T19:22:29.344Z,52.70
2018-05-07T19:24:56.400Z,52.70
2018-05-07T19:27:22.709Z,52.70
2018-05-07T19:29:49.218Z,52.70
2018-05-07T19:32:15.559Z,52.70
2018-05-07T19:34:42.726Z,52.70
2018-05-07T19:37:09.038Z,52.60
2018-05-07T19:39:35.374Z,52.60
2018-05-07T19:42:03.585Z,52.70
2018-05-07T19:44:29.926Z,52.60
2018-05-07T19:46:56.302Z,52.60
2018-05-07T19:49:22.752Z,52.70
2018-05-07T19:51:50.032Z,52.70
2018-05-07T19:54:16.361Z,52.70
2018-05-07T19:56:42.713Z,52.70
2018-05-07T19:59:09.184Z,52.70
2018-05-07T20:01:35.644Z,52.70
2018-05-07T20:04:01.984Z,52.80
2018-05-07T20:06:28.279Z,52.80
2018-05-07T20:08:54.656Z,52.80
2018-05-07T20:11:21.015Z,52.80
2018-05-07T20:13:47.471Z,52.80
2018-05-07T20:16:14.657Z,53.10
2018-05-07T20:18:40.979Z,52.90
2018-05-07T20:21:08.119Z,53.00
2018-05-07T20:23:35.187Z,52.90
2018-05-07T20:26:01.527Z,53.00
2018-05-07T20:28:28.381Z,53.00
2018-05-07T20:30:55.288Z,52.50
2018-05-07T20:33:21.680Z,53.10
2018-05-07T20:35:48.084Z,53.10
2018-05-07T20:38:14.394Z,53.10
2018-05-07T20:40:41.482Z,53.10
2018-05-07T20:43:07.829Z,53.10
2018-05-07T20:45:34.363Z,53.10
2018-05-07T20:48:00.716Z,53.20
2018-05-07T20:50:29.531Z,53.20
2018-05-07T20:52:58.209Z,53.20
2018-05-07T20:55:26.722Z,53.20
2018-05-07T20:57:54.053Z,53.30
2018-05-07T21:00:21.361Z,53.30
2018-05-07T21:02:47.783Z,53.30
2018-05-07T21:05:14.172Z,53.30
2018-05-07T21:07:41.280Z,53.30
2018-05-07T21:10:07.674Z,53.30
2018-05-07T21:12:34.727Z,53.40
2018-05-07T21:15:01.091Z,53.30
2018-05-07T21:17:28.228Z,53.40
2018-05-07T21:19:55.269Z,53.50
2018-05-07T21:22:22.357Z,53.50
2018-05-07T21:24:59.943Z,53.40
2018-05-07T21:27:26.328Z,53.50
2018-05-07T21:29:52.868Z,53.40
2018-05-07T21:32:20.286Z,53.60
2018-05-07T21:34:49.427Z,53.60
2018-05-07T21:37:15.792Z,53.60
2018-05-07T21:39:42.153Z,54.20
2018-05-07T21:42:08.553Z,53.60
2018-05-07T21:44:35.646Z,53.70
2018-05-07T21:47:02.085Z,53.60
2018-05-07T21:49:29.199Z,53.70
2018-05-07T21:51:56.195Z,53.70
2018-05-07T21:54:22.659Z,53.70
2018-05-07T21:56:49.179Z,53.70
2018-05-07T21:59:16.223Z,53.80
2018-05-07T22:01:42.545Z,53.80
2018-05-07T22:04:09.635Z,53.90
2018-05-07T22:06:36.075Z,53.80
2018-05-07T22:09:02.517Z,53.80
2018-05-07T22:11:28.929Z,53.90
2018-05-07T22:13:55.260Z,53.90
2018-05-07T22:16:22.418Z,53.90
2018-05-07T22:18:49.585Z,54.00
2018-05-07T22:21:16.564Z,54.00
2018-05-07T22:23:43.067Z,54.00
2018-05-07T22:26:09.439Z,54.00
2018-05-07T22:28:35.791Z,54.00
2018-05-07T22:31:02.180Z,54.10
2018-05-07T22:33:28.649Z,54.10
2018-05-07T22:35:55.036Z,54.10
2018-05-07T22:38:21.471Z,54.10
2018-05-07T22:40:48.500Z,54.20
2018-05-07T22:43:14.970Z,54.20
2018-05-07T22:45:41.341Z,55.00
2018-05-07T22:48:17.986Z,53.80
2018-05-07T22:50:45.344Z,54.30
2018-05-07T22:53:11.678Z,54.20
2018-05-07T22:55:37.993Z,54.30
2018-05-07T22:58:04.360Z,54.40
2018-05-07T23:00:30.765Z,54.40
2018-05-07T23:02:57.249Z,54.40
2018-05-07T23:05:24.285Z,54.60
2018-05-07T23:07:50.573Z,54.50
2018-05-07T23:10:17.568Z,54.50
2018-05-07T23:12:44.688Z,54.60
2018-05-07T23:15:11.198Z,54.50
2018-05-07T23:17:37.462Z,54.50
2018-05-07T23:20:03.830Z,54.60
2018-05-07T23:22:30.208Z,54.60
2018-05-07T23:24:56.507Z,54.70
2018-05-07T23:27:22.808Z,54.70
2018-05-07T23:29:49.206Z,54.70
2018-05-07T23:32:15.525Z,54.70
2018-05-07T23:34:41.891Z,54.80
2018-05-07T23:37:09.028Z,54.80
2018-05-07T23:39:35.454Z,54.80
2018-05-07T23:42:01.900Z,54.80
2018-05-07T23:44:30.010Z,54.90
2018-05-07T23:46:58.648Z,54.90
2018-05-07T23:49:25.686Z,55.00
2018-05-07T23:51:52.735Z,55.00
2018-05-07T23:54:19.192Z,54.90
2018-05-07T23:56:46.278Z,55.10
2018-05-07T23:59:13.411Z,55.00
